Time;durP1;ratioP1;P1;durP2;ratioP2;P2;SDS_P1;SDS_P2;PMS_P1;PMS_P2;Temp;Humidity;BMP_temperature;BMP_pressure;BME280_temperature;BME280_humidity;BME280_pressure;Samples;Min_cycle;Max_cycle;Signal;HPM_P1;HPM_P2
2024/02/15 00:00:48;;;;;;;2.90;2.23;;;9.70;99.90;;;10.41;100.00;98377.03;4982725;28;20476;-76
2024/02/15 00:03:18;;;;;;;6.60;2.57;;;9.70;99.90;;;10.45;100.00;98370.47;4983015;28;20472;-77
2024/02/15 00:05:47;;;;;;;5.43;2.50;;;9.70;99.90;;;10.48;100.00;98374.56;4981377;28;20459;-76
2024/02/15 00:08:16;;;;;;;8.33;2.67;;;9.80;99.90;;;10.43;100.00;98371.66;4981723;28;20990;-76
2024/02/15 00:10:46;;;;;;;3.63;2.50;;;9.80;99.90;;;10.42;100.00;98372.63;4982583;28;20542;-77
2024/02/15 00:13:15;;;;;;;9.10;2.90;;;9.80;99.90;;;10.41;100.00;98379.66;4981852;28;20584;-76
2024/02/15 00:15:43;;;;;;;4.57;2.70;;;9.70;99.90;;;10.40;100.00;98378.06;4981495;28;20460;-77
2024/02/15 00:18:12;;;;;;;7.30;2.37;;;9.70;99.90;;;10.40;100.00;98370.22;4982314;28;20531;-76
2024/02/15 00:20:43;;;;;;;12.53;3.03;;;9.70;99.90;;;10.44;100.00;98376.72;4981429;28;20464;-76
2024/02/15 00:23:12;;;;;;;10.40;2.70;;;9.70;99.90;;;10.44;100.00;98376.72;4983215;28;20470;-76
2024/02/15 00:25:44;;;;;;;8.30;2.80;;;9.70;99.90;;;10.42;100.00;98376.06;4981402;28;20470;-76
2024/02/15 00:28:13;;;;;;;8.20;2.73;;;9.80;99.90;;;10.48;100.00;98375.34;4983242;28;20874;-76
2024/02/15 00:30:42;;;;;;;7.60;2.67;;;9.90;99.90;;;10.50;100.00;98369.94;4981709;28;20487;-77
2024/02/15 00:33:11;;;;;;;6.07;2.43;;;9.90;99.90;;;10.49;100.00;98374.34;4980129;28;20495;-76
2024/02/15 00:35:41;;;;;;;3.77;2.60;;;9.90;99.90;;;10.54;100.00;98369.41;4980705;28;20551;-76
2024/02/15 00:38:10;;;;;;;8.87;3.00;;;9.90;99.90;;;10.57;100.00;98366.44;4980957;28;21042;-76
2024/02/15 00:40:39;;;;;;;3.67;2.40;;;9.90;99.90;;;10.57;100.00;98366.44;4981844;28;20474;-76
2024/02/15 00:43:08;;;;;;;13.50;2.10;;;10.00;99.90;;;10.64;100.00;98360.50;4980253;28;21027;-77
2024/02/15 00:45:36;;;;;;;5.40;2.30;;;10.10;99.90;;;10.67;100.00;98365.34;4979783;28;20666;-77
2024/02/15 00:48:06;;;;;;;5.40;2.43;;;10.10;99.90;;;10.69;100.00;98361.56;4980745;28;20464;-76
2024/02/15 00:50:35;;;;;;;6.70;2.60;;;10.10;99.90;;;10.72;100.00;98368.25;4980409;28;20464;-77
2024/02/15 00:53:06;;;;;;;6.73;3.30;;;10.10;99.90;;;10.77;100.00;98363.28;4980289;28;20501;-77
2024/02/15 00:55:34;;;;;;;8.27;3.87;;;10.20;99.90;;;10.81;100.00;98368.00;4980293;28;20456;-76
2024/02/15 00:58:03;;;;;;;4.53;2.67;;;10.30;99.90;;;10.86;100.00;98364.84;4980812;28;20480;-76
2024/02/15 01:00:31;;;;;;;5.23;2.40;;;10.40;99.90;;;10.86;100.00;98354.38;4980689;28;20464;-77
2024/02/15 01:02:59;;;;;;;5.43;2.90;;;10.30;99.90;;;10.88;100.00;98352.38;4981086;28;20812;-76
2024/02/15 01:05:28;;;;;;;6.33;3.00;;;10.40;99.90;;;10.91;100.00;98352.81;4974886;28;20460;-77
2024/02/15 01:07:57;;;;;;;4.70;3.07;;;10.40;99.90;;;10.92;100.00;98351.03;4980835;28;20549;-77
2024/02/15 01:10:27;;;;;;;7.80;2.83;;;10.40;99.90;;;10.93;100.00;98356.06;4980176;28;20468;-77
2024/02/15 01:12:55;;;;;;;7.00;3.23;;;10.40;99.90;;;10.97;100.00;98348.66;4979385;28;20918;-77
2024/02/15 01:15:24;;;;;;;11.70;3.03;;;10.50;99.90;;;10.96;100.00;98349.69;4979219;28;20465;-76
2024/02/15 01:17:52;;;;;;;6.03;2.63;;;10.50;99.90;;;10.95;100.00;98345.44;4980030;28;20460;-77
2024/02/15 01:20:21;;;;;;;8.17;2.70;;;10.50;99.90;;;10.96;100.00;98349.69;4980833;28;20596;-77
2024/02/15 01:22:49;;;;;;;12.23;3.00;;;10.50;99.90;;;10.95;100.00;98348.03;4980617;28;20475;-77
2024/02/15 01:25:18;;;;;;;7.53;2.87;;;10.50;99.90;;;10.95;100.00;98354.09;4980075;28;20459;-77
2024/02/15 01:27:48;;;;;;;8.93;3.00;;;10.40;99.90;;;10.97;100.00;98359.13;4980919;28;20476;-76
2024/02/15 01:30:17;;;;;;;4.63;3.40;;;10.50;99.90;;;10.97;100.00;98352.09;4980356;28;20468;-76
2024/02/15 01:32:45;;;;;;;9.33;3.43;;;10.50;99.90;;;10.97;100.00;98361.75;4979672;28;20503;-76
2024/02/15 01:35:14;;;;;;;5.27;2.50;;;10.40;99.90;;;10.97;100.00;98361.75;4980655;28;20459;-77
2024/02/15 01:37:42;;;;;;;3.43;2.70;;;10.40;99.90;;;10.98;100.00;98363.38;4980158;28;20460;-76
2024/02/15 01:40:12;;;;;;;9.13;3.33;;;10.40;99.90;;;10.98;100.00;98368.59;4980966;28;20971;-76
2024/02/15 01:42:41;;;;;;;8.57;2.97;;;10.40;99.90;;;10.96;100.00;98371.41;4979948;28;21022;-77
2024/02/15 01:45:12;;;;;;;16.40;2.83;;;10.40;99.90;;;10.98;100.00;98376.47;4979739;28;20474;-77
2024/02/15 01:47:42;;;;;;;4.30;2.70;;;10.40;99.90;;;10.97;100.00;98366.97;4981208;28;20539;-77
2024/02/15 01:50:14;;;;;;;5.23;2.43;;;10.30;99.90;;;10.95;100.00;98369.78;4979727;28;20551;-76
2024/02/15 01:52:47;;;;;;;17.77;2.87;;;10.30;99.90;;;10.94;100.00;98370.78;4981272;28;20483;-77
2024/02/15 01:55:18;;;;;;;6.90;2.43;;;10.30;99.90;;;10.93;100.00;98370.97;4979057;28;20488;-77
2024/02/15 01:57:48;;;;;;;8.40;2.20;;;10.20;99.90;;;10.94;100.00;98367.34;4981162;28;20463;-76
2024/02/15 02:00:19;;;;;;;3.57;2.50;;;10.20;99.90;;;10.91;100.00;98365.91;4980341;28;20452;-76
2024/02/15 02:02:49;;;;;;;13.00;3.27;;;10.20;99.90;;;10.93;100.00;98365.75;4979832;28;20942;-77
2024/02/15 02:05:18;;;;;;;7.00;2.70;;;10.20;99.90;;;10.94;100.00;98362.94;4979230;28;20455;-77
2024/02/15 02:07:47;;;;;;;6.90;3.23;;;10.20;99.90;;;10.93;100.00;98365.75;4979936;28;20804;-76
2024/02/15 02:10:15;;;;;;;7.97;2.63;;;10.20;99.90;;;10.84;100.00;98358.97;4980861;28;20537;-76
2024/02/15 02:12:44;;;;;;;4.90;2.63;;;10.10;99.90;;;10.85;100.00;98358.78;4983741;28;20570;-77
2024/02/15 02:15:12;;;;;;;3.10;2.20;;;10.10;99.90;;;10.80;100.00;98362.91;4984472;28;20494;-76
2024/02/15 02:17:42;;;;;;;7.00;3.03;;;10.10;99.90;;;10.78;100.00;98352.66;4984321;28;20491;-76
2024/02/15 02:20:13;;;;;;;7.20;2.37;;;10.10;99.90;;;10.80;100.00;98355.06;4982819;28;20820;-76
2024/02/15 02:22:46;;;;;;;6.30;2.40;;;10.10;99.90;;;10.78;100.00;98355.28;4984031;28;20982;-77
2024/02/15 02:25:17;;;;;;;3.70;2.30;;;10.10;99.90;;;10.79;100.00;98353.47;4984631;28;20462;-77
2024/02/15 02:27:48;;;;;;;4.70;2.20;;;10.00;99.90;;;10.76;100.00;98343.38;4984369;28;20464;-76
2024/02/15 02:30:18;;;;;;;3.50;2.70;;;10.00;99.90;;;10.73;100.00;98347.13;4984543;28;20459;-77
2024/02/15 02:32:47;;;;;;;3.97;3.03;;;9.90;99.90;;;10.72;100.00;98342.09;4982796;28;20551;-76
2024/02/15 02:35:16;;;;;;;4.60;2.63;;;9.90;99.90;;;10.63;100.00;98343.97;4981669;28;20477;-76
2024/02/15 02:37:46;;;;;;;3.50;2.90;;;9.90;99.90;;;10.60;100.00;98341.72;4981287;28;20853;-76
2024/02/15 02:40:16;;;;;;;4.23;2.60;;;9.90;99.90;;;10.62;100.00;98338.94;4983272;28;21198;-77
2024/02/15 02:42:50;;;;;;;8.43;2.70;;;9.90;99.90;;;10.66;100.00;98340.19;4983080;28;20479;-77
2024/02/15 02:45:19;;;;;;;5.13;2.50;;;9.90;99.90;;;10.63;100.00;98337.94;4982583;28;20478;-76
2024/02/15 02:47:48;;;;;;;6.37;2.60;;;9.90;99.90;;;10.63;100.00;98335.31;4982223;28;20966;-76
2024/02/15 02:50:21;;;;;;;9.37;2.97;;;9.90;99.90;;;10.60;100.00;98326.84;4982269;28;20467;-76
2024/02/15 02:52:49;;;;;;;6.77;2.70;;;9.90;99.90;;;10.54;100.00;98324.97;4982741;28;20486;-77
2024/02/15 02:55:20;;;;;;;5.90;2.90;;;9.80;99.90;;;10.57;100.00;98335.06;4982620;28;20485;-77
2024/02/15 02:57:49;;;;;;;3.37;2.40;;;9.80;99.90;;;10.56;100.00;98328.19;4983789;28;20836;-76
2024/02/15 03:00:19;;;;;;;6.83;2.87;;;9.80;99.90;;;10.54;100.00;98324.16;4983289;28;20459;-76
2024/02/15 03:02:48;;;;;;;10.60;3.67;;;9.80;99.90;;;10.55;100.00;98331.81;4983146;28;20464;-76
2024/02/15 03:05:20;;;;;;;3.00;2.40;;;9.80;99.90;;;10.56;100.00;98328.19;4982944;28;20971;-77
2024/02/15 03:07:51;;;;;;;11.03;2.50;;;9.90;99.90;;;10.56;100.00;98328.19;4983035;28;20652;-77
2024/02/15 03:10:21;;;;;;;6.43;2.60;;;9.90;99.90;;;10.54;100.00;98330.19;4983498;28;21117;-77
2024/02/15 03:12:50;;;;;;;6.17;3.03;;;9.90;99.90;;;10.57;100.00;98324.59;4981230;28;20463;-76
2024/02/15 03:15:18;;;;;;;8.03;2.63;;;9.90;99.90;;;10.54;100.00;98327.59;4982163;28;20878;-76
2024/02/15 03:17:49;;;;;;;4.10;3.00;;;9.90;99.90;;;10.53;100.00;98325.94;4983099;28;20498;-76
2024/02/15 03:20:21;;;;;;;5.70;2.63;;;9.80;99.90;;;10.49;100.00;98321.25;4982279;28;20452;-77
2024/02/15 03:22:55;;;;;;;4.50;2.77;;;9.80;99.90;;;10.49;100.00;98322.06;4982482;28;20866;-77
2024/02/15 03:25:28;;;;;;;3.20;2.90;;;9.80;99.90;;;10.48;100.00;98330.09;4982440;28;20483;-77
2024/02/15 03:28:02;;;;;;;5.63;3.33;;;9.70;99.90;;;10.49;100.00;98323.88;4982310;28;20602;-76
2024/02/15 03:30:34;;;;;;;3.00;2.80;;;9.80;99.90;;;10.48;100.00;98315.22;4981520;28;20468;-76
2024/02/15 03:33:05;;;;;;;6.43;3.50;;;9.80;99.90;;;10.47;100.00;98312.78;4983419;28;20527;-77
2024/02/15 03:35:35;;;;;;;13.33;2.80;;;9.80;99.90;;;10.50;100.00;98301.97;4981389;28;20539;-76
2024/02/15 03:38:04;;;;;;;11.90;3.53;;;9.80;99.90;;;10.49;100.00;98310.78;4981902;28;20987;-76
2024/02/15 03:40:34;;;;;;;5.10;3.03;;;9.80;99.90;;;10.49;100.00;98311.59;4981684;28;20526;-76
2024/02/15 03:43:06;;;;;;;5.93;3.03;;;9.80;99.90;;;10.51;100.00;98309.66;4981112;28;20484;-77
2024/02/15 03:45:35;;;;;;;5.73;3.20;;;9.80;99.90;;;10.49;100.00;98310.78;4981327;28;20463;-76
2024/02/15 03:48:05;;;;;;;3.70;2.93;;;9.80;99.90;;;10.43;100.00;98314.94;4981137;28;20464;-76
2024/02/15 03:50:33;;;;;;;10.23;2.90;;;9.70;99.90;;;10.44;100.00;98313.97;4981012;28;20518;-76
2024/02/15 03:53:02;;;;;;;5.60;3.20;;;9.70;99.90;;;10.48;100.00;98317.03;4981046;28;20680;-77
2024/02/15 03:55:30;;;;;;;6.77;3.57;;;9.80;99.90;;;10.48;100.00;98312.59;4979571;28;20687;-77
2024/02/15 03:58:00;;;;;;;5.43;3.30;;;9.80;99.90;;;10.49;100.00;98310.78;4981905;28;20970;-76
2024/02/15 04:00:29;;;;;;;7.23;3.27;;;9.80;99.90;;;10.49;100.00;98314.22;4982730;28;20637;-77
2024/02/15 04:02:57;;;;;;;8.60;3.70;;;9.80;99.90;;;10.51;100.00;98322.72;4981897;28;20468;-77
2024/02/15 04:05:26;;;;;;;12.97;3.90;;;9.80;99.90;;;10.50;100.00;98318.47;4981865;28;20471;-76
2024/02/15 04:07:54;;;;;;;5.60;3.20;;;9.80;99.90;;;10.50;100.00;98323.69;4982009;28;20463;-77
2024/02/15 04:10:23;;;;;;;5.30;4.70;;;9.80;99.90;;;10.52;100.00;98316.47;4981062;28;20670;-77
2024/02/15 04:12:51;;;;;;;5.63;3.33;;;9.80;99.90;;;10.51;100.00;98314.88;4981412;28;20476;-77
2024/02/15 04:15:21;;;;;;;9.90;4.00;;;9.80;99.90;;;10.48;100.00;98314.41;4982079;28;20492;-77
2024/02/15 04:17:55;;;;;;;8.47;3.80;;;9.70;99.90;;;10.48;100.00;98315.22;4981206;28;20936;-76
2024/02/15 04:20:25;;;;;;;6.23;3.40;;;9.70;99.90;;;10.48;100.00;98314.41;4982040;28;20461;-76
2024/02/15 04:22:54;;;;;;;7.80;4.30;;;9.70;99.90;;;10.48;100.00;98314.41;4982311;28;20467;-76
2024/02/15 04:25:27;;;;;;;4.83;3.37;;;9.70;99.90;;;10.46;100.00;98317.19;4982750;28;20486;-77
2024/02/15 04:27:57;;;;;;;5.60;3.63;;;9.70;99.90;;;10.48;100.00;98324.88;4981114;28;20495;-77
2024/02/15 04:30:27;;;;;;;10.60;4.10;;;9.70;99.90;;;10.49;100.00;98316.84;4981607;28;20875;-77
2024/02/15 04:32:54;;;;;;;4.27;3.17;;;9.70;99.90;;;10.51;100.00;98314.88;4980237;28;20476;-77
2024/02/15 04:35:24;;;;;;;12.10;3.57;;;9.70;99.90;;;10.47;100.00;98313.59;4980192;28;20510;-76
2024/02/15 04:37:53;;;;;;;4.93;3.73;;;9.70;99.90;;;10.45;100.00;98312.97;4980782;28;20486;-77
2024/02/15 04:40:21;;;;;;;4.83;3.57;;;9.70;99.90;;;10.40;100.00;98315.31;4981136;28;20519;-76
2024/02/15 04:42:50;;;;;;;6.73;3.83;;;9.70;99.90;;;10.40;100.00;98314.50;4980518;28;20488;-76
2024/02/15 04:45:20;;;;;;;16.07;4.33;;;9.70;99.90;;;10.39;100.00;98305.84;4979940;28;20518;-77
2024/02/15 04:47:52;;;;;;;11.90;3.50;;;9.70;99.90;;;10.42;100.00;98310.69;4980423;28;20460;-76
2024/02/15 04:50:21;;;;;;;5.47;3.67;;;9.60;99.90;;;10.40;100.00;98289.16;4980798;28;20809;-77
2024/02/15 04:52:49;;;;;;;8.13;3.60;;;9.60;99.90;;;10.36;100.00;98290.50;4981493;28;20466;-76
2024/02/15 04:55:18;;;;;;;6.47;4.33;;;9.60;99.90;;;10.30;100.00;98291.25;4972679;28;20519;-77
2024/02/15 04:57:48;;;;;;;6.90;3.93;;;9.60;99.90;;;10.26;100.00;98295.19;4973791;28;21108;-77
2024/02/15 05:00:20;;;;;;;9.13;3.67;;;9.50;99.90;;;10.19;100.00;98296.91;4969614;28;20854;-76
2024/02/15 05:02:51;;;;;;;11.00;5.20;;;9.60;99.90;;;10.14;100.00;98299.22;4970588;28;20464;-83
2024/02/15 05:05:21;;;;;;;14.27;6.27;;;9.40;99.90;;;10.10;100.00;98296.13;4972938;28;20467;-78
2024/02/15 05:07:50;;;;;;;5.97;3.60;;;9.40;99.90;;;10.08;100.00;98295.50;4968192;28;20468;-77
2024/02/15 05:10:19;;;;;;;12.90;4.03;;;9.40;99.90;;;10.09;100.00;98297.13;4977409;28;20479;-77
2024/02/15 05:12:48;;;;;;;11.30;3.70;;;9.40;99.90;;;10.07;100.00;98293.88;4978991;28;20472;-77
2024/02/15 05:15:17;;;;;;;4.50;3.50;;;9.30;99.90;;;10.03;100.00;98295.19;4980431;28;20503;-77
2024/02/15 05:17:47;;;;;;;4.47;3.70;;;9.30;99.90;;;10.01;100.00;98293.75;4979191;28;20517;-77
2024/02/15 05:20:20;;;;;;;9.03;3.90;;;9.30;99.90;;;9.99;100.00;98285.31;4980384;28;20460;-77
2024/02/15 05:22:49;;;;;;;7.10;3.77;;;9.20;99.90;;;9.98;100.00;98281.06;4978801;28;20623;-77
2024/02/15 05:25:22;;;;;;;10.00;3.80;;;9.20;99.90;;;9.98;100.00;98283.66;4980112;28;20463;-76
2024/02/15 05:27:54;;;;;;;9.73;4.07;;;9.20;99.90;;;9.94;100.00;98285.00;4980095;28;20533;-77
2024/02/15 05:30:25;;;;;;;11.20;4.20;;;9.20;99.90;;;9.92;100.00;98282.59;4980694;28;20455;-77
2024/02/15 05:32:54;;;;;;;19.23;4.00;;;9.20;99.90;;;9.96;100.00;98270.78;4979713;28;20538;-76
2024/02/15 05:35:26;;;;;;;10.53;5.00;;;9.20;99.90;;;9.93;100.00;98278.97;4980729;28;20499;-77
2024/02/15 05:37:55;;;;;;;8.80;5.83;;;9.20;99.90;;;9.91;100.00;98270.50;4978689;28;20464;-77
2024/02/15 05:40:24;;;;;;;6.07;4.50;;;9.20;99.90;;;9.90;100.00;98274.09;4981409;28;20468;-75
2024/02/15 05:42:58;;;;;;;7.20;4.60;;;9.20;99.90;;;9.99;100.00;98267.03;4979871;28;20559;-77
2024/02/15 05:45:35;;;;;;;5.47;4.50;;;9.20;99.90;;;9.98;100.00;98268.00;4980125;28;20822;-77
2024/02/15 05:48:12;;;;;;;12.73;5.07;;;9.20;99.90;;;9.94;100.00;98269.34;4975746;28;20982;-77
2024/02/15 05:50:42;;;;;;;16.57;7.77;;;9.20;99.90;;;9.90;100.00;98268.88;4978141;28;20482;-79
2024/02/15 05:53:11;;;;;;;10.20;6.90;;;9.20;99.90;;;9.91;100.00;98274.91;4973168;28;20475;-77
2024/02/15 05:55:44;;;;;;;8.97;5.20;;;9.20;99.90;;;9.91;100.00;98277.53;4979934;28;21026;-77
2024/02/15 05:58:13;;;;;;;12.20;4.83;;;9.20;99.90;;;9.93;100.00;98271.13;4979818;28;20467;-77
2024/02/15 06:00:44;;;;;;;9.97;4.87;;;9.20;99.90;;;9.92;100.00;98271.31;4979722;28;20489;-77
2024/02/15 06:03:12;;;;;;;11.13;3.60;;;9.20;99.90;;;9.90;100.00;98268.88;4980505;28;20467;-77
2024/02/15 06:05:43;;;;;;;8.13;3.80;;;9.20;99.90;;;9.84;100.00;98269.59;4979503;28;20877;-77
2024/02/15 06:08:12;;;;;;;11.27;3.87;;;9.20;99.90;;;9.87;100.00;98268.41;4980614;28;20580;-77
2024/02/15 06:10:41;;;;;;;10.00;3.90;;;9.20;99.90;;;9.86;100.00;98270.22;4978466;28;20480;-77
2024/02/15 06:13:10;;;;;;;5.47;3.80;;;9.20;99.90;;;9.86;100.00;98269.41;4979150;28;20484;-77
2024/02/15 06:15:38;;;;;;;6.43;3.93;;;9.10;99.90;;;9.86;100.00;98272.81;4979442;28;20495;-76
2024/02/15 06:18:10;;;;;;;6.30;3.97;;;9.10;99.90;;;9.86;100.00;98277.25;4979500;28;20530;-77
2024/02/15 06:20:39;;;;;;;7.33;3.80;;;9.10;99.90;;;9.89;100.00;98272.47;4977814;28;20547;-78
2024/02/15 06:23:09;;;;;;;7.60;4.20;;;9.20;99.90;;;9.87;100.00;98281.47;4977818;28;20460;-78
2024/02/15 06:25:38;;;;;;;4.80;3.50;;;9.20;99.90;;;9.87;100.00;98273.66;4980749;28;20839;-77
2024/02/15 06:28:19;;;;;;;5.20;3.80;;;9.20;99.90;;;9.85;100.00;98280.84;4979530;28;20483;-76
2024/02/15 06:41:53;;;;;;;7.33;4.83;;;9.10;99.90;;;9.87;100.00;98284.91;4976892;28;20488;-78
2024/02/15 06:44:23;;;;;;;9.23;4.70;;;9.10;99.90;;;9.85;100.00;98281.69;4979525;28;20457;-77
2024/02/15 06:46:52;;;;;;;15.60;4.47;;;9.10;99.90;;;9.86;100.00;98275.44;4978441;28;20536;-78
2024/02/15 06:49:22;;;;;;;13.27;4.60;;;9.10;99.90;;;9.88;100.00;98270.06;4977934;28;20464;-78
2024/02/15 06:51:50;;;;;;;9.53;4.40;;;9.10;99.90;;;9.89;100.00;98275.09;4978578;28;20475;-78
2024/02/15 06:54:20;;;;;;;8.57;4.27;;;9.10;99.90;;;9.88;100.00;98264.81;4979952;28;20514;-78
2024/02/15 06:56:49;;;;;;;7.33;4.67;;;9.20;99.90;;;9.90;100.00;98278.50;4979740;28;20585;-78
2024/02/15 06:59:18;;;;;;;8.37;4.20;;;9.20;99.90;;;9.92;100.00;98279.16;4981986;28;20463;-77
2024/02/15 07:01:46;;;;;;;7.47;5.53;;;9.20;99.90;;;9.89;100.00;98288.13;4976561;28;20872;-77
2024/02/15 07:04:15;;;;;;;20.10;10.80;;;9.20;99.90;;;9.88;100.00;98280.50;4978150;28;20846;-77
2024/02/15 07:06:46;;;;;;;10.83;5.73;;;9.20;99.90;;;9.90;100.00;98281.13;4979000;28;20470;-77
2024/02/15 07:09:17;;;;;;;7.83;4.20;;;9.20;99.90;;;9.89;100.00;98297.81;4975725;28;20839;-77
2024/02/15 07:11:47;;;;;;;15.10;5.20;;;9.10;99.90;;;9.89;100.00;98295.19;4974544;28;20957;-77
2024/02/15 07:14:19;;;;;;;13.30;4.60;;;9.10;99.90;;;9.89;100.00;98297.81;4976287;28;20517;-77
2024/02/15 07:16:50;;;;;;;7.23;4.70;;;9.10;99.90;;;9.87;100.00;98310.22;4975169;28;20538;-76
2024/02/15 07:19:20;;;;;;;7.70;4.87;;;9.10;99.90;;;9.86;100.00;98308.56;4976856;28;20871;-77
2024/02/15 07:21:49;;;;;;;11.53;4.90;;;9.10;99.90;;;9.87;100.00;98304.97;4976056;28;20467;-77
2024/02/15 07:24:19;;;;;;;9.30;5.60;;;9.10;99.90;;;9.86;100.00;98312.00;4976032;28;21182;-77
2024/02/15 07:26:52;;;;;;;9.50;5.30;;;9.10;99.90;;;9.86;100.00;98319.03;4976420;28;20474;-77
2024/02/15 07:29:23;;;;;;;10.67;5.67;;;9.10;99.90;;;9.92;100.00;98307.91;4976546;28;20468;-77
2024/02/15 07:31:51;;;;;;;8.37;5.00;;;9.10;99.90;;;9.94;100.00;98305.91;4975644;28;20460;-77
2024/02/15 07:34:20;;;;;;;14.33;4.50;;;9.20;99.90;;;9.98;100.00;98317.63;4977333;28;20855;-77
2024/02/15 07:36:49;;;;;;;11.73;5.03;;;9.20;99.90;;;9.96;100.00;98306.56;4973132;28;20503;-77
2024/02/15 07:39:23;;;;;;;14.77;6.10;;;9.20;99.90;;;9.99;100.00;98308.81;4974635;28;20476;-77
2024/02/15 07:41:54;;;;;;;10.63;5.30;;;9.20;99.90;;;10.01;100.00;98309.44;4975087;28;20546;-77
2024/02/15 07:44:23;;;;;;;7.77;4.60;;;9.30;99.90;;;10.03;100.00;98312.72;4977153;28;20499;-77
2024/02/15 07:46:52;;;;;;;8.57;4.77;;;9.30;99.90;;;10.03;100.00;98310.09;4974607;28;20483;-77
2024/02/15 07:49:22;;;;;;;19.73;6.20;;;9.30;99.90;;;10.05;100.00;98308.91;4977659;28;20550;-77
2024/02/15 07:51:52;;;;;;;7.60;4.77;;;9.30;99.90;;;10.07;100.00;98312.16;4974598;28;20464;-77
2024/02/15 07:54:22;;;;;;;7.60;4.90;;;9.40;99.90;;;10.11;100.00;98312.59;4975853;28;21006;-76
2024/02/15 07:56:51;;;;;;;12.57;5.00;;;9.40;99.90;;;10.16;100.00;98307.72;4975049;28;20522;-77
2024/02/15 07:59:21;;;;;;;11.33;5.20;;;9.40;99.90;;;10.21;100.00;98317.59;4974504;28;20468;-77
2024/02/15 08:01:50;;;;;;;10.53;5.00;;;9.40;99.90;;;10.24;100.00;98317.28;4974672;28;20805;-78
2024/02/15 08:04:20;;;;;;;13.90;5.10;;;9.50;99.90;;;10.23;100.00;98308.63;4974529;28;21070;-81
2024/02/15 08:06:50;;;;;;;42.20;21.90;;;9.50;99.90;;;10.26;100.00;98316.09;4974547;28;21083;-76
2024/02/15 08:09:21;;;;;;;10.90;5.90;;;9.40;99.90;;;10.29;100.00;98315.75;4975817;28;20467;-77
2024/02/15 08:11:51;;;;;;;7.73;5.73;;;9.50;99.90;;;10.33;100.00;98313.59;4972124;28;20819;-76
2024/02/15 08:14:21;;;;;;;11.47;6.97;;;9.60;99.90;;;10.36;100.00;98314.03;4975651;28;20476;-77
2024/02/15 08:16:49;;;;;;;11.90;6.37;;;9.60;99.90;;;10.39;100.00;98311.06;4973977;28;20492;-77
2024/02/15 08:19:18;;;;;;;22.70;6.20;;;9.60;99.90;;;10.41;100.00;98308.28;4972348;28;20460;-77
2024/02/15 08:21:50;;;;;;;18.57;7.73;;;9.60;99.90;;;10.43;100.00;98301.88;4975969;28;20955;-77
2024/02/15 08:24:19;;;;;;;14.33;6.43;;;9.70;99.90;;;10.44;100.00;98300.91;4973694;28;20535;-77
2024/02/15 08:26:48;;;;;;;9.57;6.33;;;9.70;99.90;;;10.47;100.00;98305.75;4975908;28;20561;-77
2024/02/15 08:29:17;;;;;;;8.57;5.67;;;9.70;99.90;;;10.50;100.00;98308.00;4975111;28;20497;-76
2024/02/15 08:31:48;;;;;;;9.80;5.47;;;9.70;99.90;;;10.52;100.00;98299.97;4974771;28;20555;-77
2024/02/15 08:34:18;;;;;;;9.33;5.50;;;9.80;99.90;;;10.56;100.00;98296.00;4976003;28;20651;-78
2024/02/15 08:36:47;;;;;;;9.87;5.23;;;9.80;99.90;;;10.58;100.00;98294.84;4974339;28;20515;-79
2024/02/15 08:39:16;;;;;;;10.47;5.10;;;9.80;99.90;;;10.58;100.00;98294.84;4974456;28;20474;-78
2024/02/15 08:41:46;;;;;;;6.67;4.57;;;9.90;99.90;;;10.59;100.00;98280.78;4974469;28;20566;-78
2024/02/15 08:44:15;;;;;;;9.37;4.13;;;10.00;99.90;;;10.63;100.00;98276.00;4976069;28;20475;-78
2024/02/15 08:46:45;;;;;;;18.10;5.30;;;10.00;99.90;;;10.68;100.00;98278.06;4972521;28;20547;-84
2024/02/15 08:49:16;;;;;;;9.40;5.60;;;10.00;99.90;;;10.70;100.00;98279.50;4974947;28;20978;-76
2024/02/15 08:51:45;;;;;;;13.20;7.30;;;10.00;99.90;;;10.76;100.00;98283.22;4975566;28;20547;-77
2024/02/15 08:54:14;;;;;;;9.20;5.60;;;10.00;99.90;;;10.76;100.00;98272.75;4981039;28;20467;-78
2024/02/15 08:56:43;;;;;;;9.17;5.23;;;10.00;99.90;;;10.80;100.00;98271.38;4979673;28;20491;-77
2024/02/15 08:59:11;;;;;;;12.37;6.43;;;10.10;99.90;;;10.80;100.00;98276.59;4981016;28;20463;-78
2024/02/15 09:01:40;;;;;;;9.43;4.33;;;10.10;99.90;;;10.81;100.00;98271.19;4980618;28;20511;-78
2024/02/15 09:04:10;;;;;;;11.40;4.40;;;10.20;99.90;;;10.86;100.00;98278.50;4979718;28;20468;-77
2024/02/15 09:06:38;;;;;;;10.90;4.47;;;10.20;99.90;;;10.89;100.00;98278.13;4981406;28;20818;-78
2024/02/15 09:09:07;;;;;;;11.10;3.83;;;10.20;99.90;;;10.89;100.00;98280.75;4979547;28;20539;-78
2024/02/15 09:11:35;;;;;;;7.30;4.50;;;10.20;99.90;;;10.90;100.00;98269.28;4979652;28;20543;-78
2024/02/15 09:14:04;;;;;;;9.00;3.97;;;10.20;99.90;;;10.92;100.00;98275.16;4979345;28;20986;-78
2024/02/15 09:16:33;;;;;;;8.73;4.57;;;10.20;99.90;;;10.93;100.00;98276.78;4980475;28;20503;-78
2024/02/15 09:19:02;;;;;;;4.80;3.87;;;10.30;99.90;;;10.93;100.00;98274.94;4978975;28;20829;-78
2024/02/15 09:21:33;;;;;;;6.77;3.90;;;10.30;99.90;;;10.94;100.00;98266.13;4980749;28;20554;-78
2024/02/15 09:24:01;;;;;;;8.87;4.60;;;10.30;99.90;;;11.00;100.00;98272.44;4980613;28;20463;-78
2024/02/15 09:26:30;;;;;;;5.73;3.97;;;10.40;99.90;;;11.03;100.00;98267.66;4974882;28;20563;-77
2024/02/15 09:28:58;;;;;;;11.33;4.70;;;10.40;99.90;;;11.05;100.00;98272.69;4970874;28;20471;-77
2024/02/15 09:31:27;;;;;;;15.07;7.43;;;10.40;99.90;;;11.05;100.00;98276.13;4970588;28;20950;-85
2024/02/15 09:33:57;;;;;;;12.10;5.50;;;10.30;99.90;;;11.01;100.00;98266.19;4973735;28;20811;-77
2024/02/15 09:36:28;;;;;;;7.37;3.50;;;10.30;99.90;;;11.08;100.00;98267.06;4979681;28;20464;-77
2024/02/15 09:38:58;;;;;;;5.13;3.43;;;10.50;99.90;;;11.14;100.00;98258.50;4980676;28;20568;-77
2024/02/15 09:41:27;;;;;;;17.23;4.20;;;10.50;99.90;;;11.18;100.00;98264.97;4979628;28;20483;-77
2024/02/15 09:43:55;;;;;;;8.57;3.80;;;10.50;99.90;;;11.22;100.00;98258.38;4981107;28;20955;-77
2024/02/15 09:46:25;;;;;;;7.10;3.70;;;10.60;99.90;;;11.24;100.00;98252.97;4980093;28;20490;-76
2024/02/15 09:48:59;;;;;;;6.50;3.73;;;10.50;99.90;;;11.24;100.00;98248.53;4979607;28;20464;-77
2024/02/15 09:51:31;;;;;;;6.93;4.03;;;10.50;99.90;;;11.29;100.00;98246.16;4980916;28;20456;-77
2024/02/15 09:54:02;;;;;;;11.63;3.67;;;10.60;99.90;;;11.34;100.00;98253.47;4980037;28;20972;-76
2024/02/15 09:56:35;;;;;;;6.73;2.53;;;10.70;99.90;;;11.35;100.00;98245.41;4979154;28;20475;-77
2024/02/15 09:59:03;;;;;;;7.73;3.40;;;10.70;99.90;;;11.40;100.00;98253.53;4980442;28;20466;-77
2024/02/15 10:01:35;;;;;;;6.90;3.13;;;10.70;99.90;;;11.40;100.00;98250.09;4981240;28;20472;-77
2024/02/15 10:04:07;;;;;;;3.50;2.77;;;10.70;99.90;;;11.41;100.00;98257.78;4979247;28;21058;-76
2024/02/15 10:06:36;;;;;;;8.00;2.83;;;10.80;99.90;;;11.46;100.00;98258.00;4980216;28;20460;-77
2024/02/15 10:09:29;;;;;;;5.77;2.90;;;10.80;99.90;;;11.48;100.00;98255.22;4980123;28;20468;-77
2024/02/15 10:11:59;;;;;;;2.93;2.50;;;10.90;99.90;;;11.53;100.00;98253.66;4979271;28;20464;-77
2024/02/15 10:14:29;;;;;;;5.73;2.80;;;10.90;99.90;;;11.53;100.00;98247.59;4978242;28;20466;-77
2024/02/15 10:17:07;;;;;;;9.17;2.50;;;10.90;99.90;;;11.53;100.00;98245.78;4979852;28;20487;-77
2024/02/15 10:19:35;;;;;;;7.63;3.30;;;10.90;99.90;;;11.56;100.00;98248.03;4979673;28;20467;-77
2024/02/15 10:22:08;;;;;;;5.60;2.40;;;10.90;99.90;;;11.56;100.00;98249.84;4979362;28;20470;-77
2024/02/15 10:24:39;;;;;;;5.10;2.97;;;11.00;99.90;;;11.59;100.00;98247.66;4980094;28;20472;-78
2024/02/15 10:27:10;;;;;;;5.00;2.57;;;11.00;99.90;;;11.61;100.00;98244.84;4974510;28;20468;-78
2024/02/15 10:29:39;;;;;;;4.47;2.63;;;11.10;99.90;;;11.63;100.00;98243.66;4970412;28;20518;-82
2024/02/15 10:32:10;;;;;;;7.37;2.67;;;11.10;99.90;;;11.63;100.00;98238.41;4976157;28;20474;-77
2024/02/15 10:34:45;;;;;;;21.03;9.70;;;11.20;99.90;;;11.69;100.00;98238.69;4980643;28;20471;-76
2024/02/15 10:37:17;;;;;;;8.23;4.30;;;11.10;99.90;;;11.72;100.00;98227.84;4975222;28;20580;-77